createdAt,value
2023-01-02T00:02:54.217Z,20.60
2023-01-02T00:06:57.420Z,23.50
2023-01-02T00:11:01.857Z,18.60
2023-01-02T00:15:05.304Z,21.42
2023-01-02T00:19:08.805Z,17.35
2023-01-02T00:23:12.671Z,20.42
2023-01-02T00:27:17.067Z,22.05
2023-01-02T00:31:20.079Z,15.65
2023-01-02T00:35:23.092Z,17.40
2023-01-02T00:39:26.514Z,20.45
2023-01-02T00:43:31.378Z,19.73
2023-01-02T00:47:34.487Z,17.52
2023-01-02T00:51:37.472Z,14.73
2023-01-02T00:55:40.816Z,17.67
2023-01-02T00:59:45.310Z,19.20
2023-01-02T01:03:48.404Z,16.55
2023-01-02T01:07:51.481Z,17.15
2023-01-02T01:11:54.555Z,17.05
2023-01-02T01:16:05.558Z,16.73
2023-01-02T01:20:10.124Z,22.55
2023-01-02T01:24:13.407Z,20.27
2023-01-02T01:28:16.483Z,18.15
2023-01-02T01:32:20.897Z,17.38
2023-01-02T01:36:25.446Z,17.15
2023-01-02T01:40:28.465Z,18.70
2023-01-02T01:44:46.954Z,16.35
2023-01-02T01:48:56.019Z,17.17
2023-01-02T01:53:04.531Z,16.30
2023-01-02T01:57:15.553Z,14.93
2023-01-02T02:01:19.328Z,16.92
2023-01-02T02:05:27.466Z,17.65
2023-01-02T02:09:36.730Z,15.93
2023-01-02T02:13:40.780Z,15.95
2023-01-02T02:17:57.447Z,15.07
2023-01-02T02:22:16.530Z,16.15
2023-01-02T02:26:52.102Z,15.10
2023-01-02T02:31:00.141Z,14.27
2023-01-02T02:35:12.902Z,16.60
2023-01-02T02:39:26.453Z,15.18
2023-01-02T02:43:41.969Z,16.20
2023-01-02T02:47:53.141Z,15.60
2023-01-02T02:52:06.471Z,14.63
2023-01-02T02:56:12.476Z,13.98
2023-01-02T03:00:18.886Z,16.88
2023-01-02T03:04:24.297Z,17.05
2023-01-02T03:08:35.003Z,12.82
2023-01-02T03:12:44.999Z,15.40
2023-01-02T03:16:54.033Z,12.77
2023-01-02T03:21:05.604Z,14.63
2023-01-02T03:25:12.063Z,12.20
2023-01-02T03:29:19.267Z,16.17
2023-01-02T03:33:27.185Z,12.50
2023-01-02T03:37:35.544Z,14.02
2023-01-02T03:41:44.543Z,13.38
2023-01-02T03:45:52.480Z,13.65
2023-01-02T03:50:00.540Z,14.73
2023-01-02T03:54:06.472Z,14.40
2023-01-02T03:58:17.848Z,19.90
2023-01-02T04:02:27.815Z,12.52
2023-01-02T04:06:36.319Z,12.52
2023-01-02T04:10:43.832Z,11.93
2023-01-02T04:14:50.727Z,14.88
2023-01-02T04:18:57.808Z,13.52
2023-01-02T04:23:03.944Z,15.68
2023-01-02T04:27:14.077Z,13.00
2023-01-02T04:31:20.552Z,12.85
2023-01-02T04:35:25.462Z,12.63
2023-01-02T04:39:29.537Z,11.82
2023-01-02T04:43:34.480Z,13.63
2023-01-02T04:47:37.468Z,15.48
2023-01-02T04:51:40.668Z,14.90
2023-01-02T04:55:43.632Z,15.27
2023-01-02T04:59:48.173Z,14.00
2023-01-02T05:03:52.752Z,14.35
2023-01-02T05:07:56.276Z,14.27
2023-01-02T05:11:59.294Z,14.35
2023-01-02T05:16:04.466Z,13.13
2023-01-02T05:20:10.660Z,14.98
2023-01-02T05:24:13.712Z,11.63
2023-01-02T05:28:16.655Z,14.20
2023-01-02T05:32:21.034Z,13.63
2023-01-02T05:36:24.938Z,16.05
2023-01-02T05:40:27.953Z,15.90
2023-01-02T05:44:31.096Z,15.20
2023-01-02T05:48:35.600Z,13.15
2023-01-02T05:52:44.911Z,16.52
2023-01-02T05:56:49.111Z,14.90
2023-01-02T06:00:53.151Z,15.27
2023-01-02T06:04:57.493Z,15.73
2023-01-02T06:09:00.985Z,12.98
2023-01-02T06:13:03.942Z,15.23
2023-01-02T06:17:07.147Z,14.35
2023-01-02T06:21:13.680Z,11.75
2023-01-02T06:25:16.864Z,12.73
2023-01-02T06:29:20.061Z,15.30
2023-01-02T06:33:23.019Z,13.73
2023-01-02T06:37:27.383Z,14.27
2023-01-02T06:41:32.279Z,13.27
2023-01-02T06:45:35.249Z,15.20
2023-01-02T06:49:38.510Z,14.18
2023-01-02T06:53:44.154Z,12.43
2023-01-02T06:57:47.117Z,16.02
2023-01-02T07:01:50.252Z,16.25
2023-01-02T07:05:53.262Z,16.83
2023-01-02T07:09:58.231Z,14.85
2023-01-02T07:14:01.240Z,14.45
2023-01-02T07:18:04.575Z,14.23
2023-01-02T07:22:07.630Z,14.65
2023-01-02T07:26:12.656Z,15.65
2023-01-02T07:30:16.316Z,15.05
2023-01-02T07:34:19.322Z,13.02
2023-01-02T07:38:22.335Z,15.50
2023-01-02T07:42:26.666Z,15.32
2023-01-02T07:46:29.887Z,12.32
2023-01-02T07:50:33.258Z,14.93
2023-01-02T07:54:36.211Z,16.23
2023-01-02T07:58:40.575Z,17.30
2023-01-02T08:02:43.800Z,15.45
2023-01-02T08:06:46.943Z,16.33
2023-01-02T08:10:49.943Z,17.40
2023-01-02T08:14:55.043Z,17.40
2023-01-02T08:18:58.038Z,15.95
2023-01-02T08:23:01.212Z,16.60
2023-01-02T08:27:04.348Z,15.05
2023-01-02T08:31:11.701Z,17.48
2023-01-02T08:35:14.743Z,14.95
2023-01-02T08:39:17.803Z,14.07
2023-01-02T08:43:20.804Z,16.20
2023-01-02T08:47:25.379Z,14.10
2023-01-02T08:51:28.871Z,14.48
2023-01-02T08:55:32.093Z,13.85
2023-01-02T08:59:35.107Z,15.68
2023-01-02T09:03:39.587Z,17.98
2023-01-02T09:07:43.270Z,15.13
2023-01-02T09:11:49.057Z,16.95
2023-01-02T09:15:52.315Z,15.25
2023-01-02T09:19:56.845Z,12.98
2023-01-02T09:23:59.990Z,12.75
2023-01-02T09:28:03.544Z,11.10
2023-01-02T09:32:06.889Z,13.75
2023-01-02T09:36:13.975Z,12.80
2023-01-02T09:40:17.145Z,15.82
2023-01-02T09:44:25.714Z,13.40
2023-01-02T09:48:34.185Z,13.10
2023-01-02T09:52:42.627Z,11.52
2023-01-02T09:56:51.273Z,10.38
2023-01-02T10:00:54.775Z,9.25
2023-01-02T10:05:15.823Z,11.65
2023-01-02T10:09:31.426Z,9.27
2023-01-02T10:14:17.221Z,11.43
2023-01-02T10:18:16.979Z,10.57
2023-01-02T10:22:24.126Z,10.65
2023-01-02T10:26:32.982Z,11.88
2023-01-02T10:30:41.667Z,13.32
2023-01-02T10:34:52.105Z,11.48
2023-01-02T10:39:00.204Z,11.20
2023-01-02T10:43:04.897Z,11.73
2023-01-02T10:47:15.167Z,11.27
2023-01-02T10:51:19.120Z,15.98
2023-01-02T10:55:33.722Z,11.82
2023-01-02T10:59:38.797Z,13.65
2023-01-02T11:03:42.125Z,13.07
2023-01-02T11:07:49.465Z,15.77
2023-01-02T11:11:54.902Z,14.70
2023-01-02T11:16:01.852Z,15.57
2023-01-02T11:20:05.711Z,11.88
2023-01-02T11:24:15.742Z,15.15
2023-01-02T11:28:22.249Z,14.85
2023-01-02T11:32:30.409Z,13.68
2023-01-02T11:36:34.316Z,12.68
2023-01-02T11:40:37.704Z,11.18
2023-01-02T11:44:51.686Z,12.40
2023-01-02T11:49:03.297Z,12.73
2023-01-02T11:53:15.751Z,12.35
2023-01-02T11:57:30.215Z,12.40
2023-01-02T12:01:47.507Z,13.55
2023-01-02T12:06:08.024Z,13.55
2023-01-02T12:10:22.102Z,14.32
2023-01-02T12:14:36.613Z,14.60
2023-01-02T12:18:53.587Z,12.00
2023-01-02T12:23:28.901Z,13.63
2023-01-02T12:27:41.958Z,15.30
2023-01-02T12:32:09.381Z,10.23
2023-01-02T12:36:35.143Z,12.23
2023-01-02T12:40:49.549Z,10.55
2023-01-02T12:44:55.321Z,11.70
2023-01-02T12:49:23.883Z,10.50
2023-01-02T12:53:43.282Z,14.82
2023-01-02T12:57:56.064Z,14.35
2023-01-02T13:02:07.051Z,12.27
2023-01-02T13:06:44.039Z,13.23
2023-01-02T13:10:41.482Z,11.68
2023-01-02T13:14:51.600Z,14.90
2023-01-02T13:19:08.486Z,10.68
2023-01-02T13:23:28.196Z,11.98
2023-01-02T13:27:31.625Z,13.00
2023-01-02T13:31:48.758Z,11.75
2023-01-02T13:35:52.969Z,11.90
2023-01-02T13:39:59.038Z,11.80
2023-01-02T13:44:03.606Z,13.27
2023-01-02T13:48:20.681Z,13.18
2023-01-02T13:52:24.602Z,11.95
2023-01-02T13:56:29.900Z,12.52
2023-01-02T14:00:35.981Z,12.10
2023-01-02T14:04:42.361Z,13.85
2023-01-02T14:09:10.711Z,12.40
2023-01-02T14:13:23.037Z,13.00
2023-01-02T14:17:38.910Z,14.45
2023-01-02T14:21:47.171Z,11.45
2023-01-02T14:25:51.268Z,10.75
2023-01-02T14:29:57.951Z,11.15
2023-01-02T14:34:02.078Z,11.32
2023-01-02T14:38:17.179Z,10.88
2023-01-02T14:42:45.832Z,12.60
2023-01-02T14:46:51.117Z,10.85
2023-01-02T14:50:56.521Z,11.27
2023-01-02T14:55:06.995Z,12.00
2023-01-02T14:59:17.045Z,11.63
2023-01-02T15:03:29.912Z,11.05
2023-01-02T15:07:36.656Z,11.50
2023-01-02T15:12:11.433Z,11.18
2023-01-02T15:16:14.925Z,11.27
2023-01-02T15:20:21.294Z,13.70
2023-01-02T15:24:27.163Z,11.52
2023-01-02T15:28:33.247Z,13.25
2023-01-02T15:32:36.595Z,12.52
2023-01-02T15:36:42.334Z,11.38
2023-01-02T15:40:46.225Z,12.73
2023-01-02T15:45:08.306Z,14.25
2023-01-02T15:49:14.573Z,12.75
2023-01-02T15:53:24.388Z,11.65
2023-01-02T15:57:31.906Z,12.35
2023-01-02T16:01:45.843Z,12.63
2023-01-02T16:05:52.811Z,13.48
2023-01-02T16:09:57.585Z,12.80
2023-01-02T16:14:22.510Z,11.82
2023-01-02T16:18:27.409Z,11.95
2023-01-02T16:22:36.603Z,11.88
2023-01-02T16:26:42.906Z,13.43
2023-01-02T16:30:47.473Z,11.45
2023-01-02T16:35:02.759Z,12.48
2023-01-02T16:39:26.503Z,11.80
2023-01-02T16:43:30.961Z,14.48
2023-01-02T16:47:40.066Z,13.18
2023-01-02T16:51:45.239Z,14.95
2023-01-02T16:55:48.526Z,14.52
2023-01-02T16:59:51.591Z,12.57
2023-01-02T17:03:54.560Z,13.02
2023-01-02T17:07:58.980Z,13.73
2023-01-02T17:12:02.290Z,14.70
2023-01-02T17:16:06.840Z,12.30
2023-01-02T17:20:11.382Z,14.60
2023-01-02T17:24:15.980Z,14.52
2023-01-02T17:28:19.201Z,15.80
2023-01-02T17:32:22.205Z,18.45
2023-01-02T17:36:25.421Z,14.52
2023-01-02T17:40:29.831Z,14.40
2023-01-02T17:44:32.813Z,16.45
2023-01-02T17:48:35.850Z,14.13
2023-01-02T17:52:39.141Z,15.52
2023-01-02T17:56:43.683Z,15.27
2023-01-02T18:00:46.742Z,14.32
2023-01-02T18:04:54.902Z,14.65
2023-01-02T18:09:00.021Z,13.40
2023-01-02T18:13:06.367Z,13.48
2023-01-02T18:17:17.605Z,14.13
2023-01-02T18:21:22.366Z,12.25
2023-01-02T18:25:28.092Z,11.18
2023-01-02T18:29:32.544Z,16.92
2023-01-02T18:33:36.002Z,12.90
2023-01-02T18:37:41.132Z,13.48
2023-01-02T18:41:44.285Z,13.93
2023-01-02T18:45:52.166Z,14.43
2023-01-02T18:49:57.685Z,17.17
2023-01-02T18:54:00.806Z,13.57
2023-01-02T18:58:07.739Z,12.50
2023-01-02T19:02:27.597Z,12.40
2023-01-02T19:06:43.850Z,12.23
2023-01-02T19:10:49.821Z,9.63
2023-01-02T19:14:54.949Z,8.80
2023-01-02T19:18:59.477Z,11.13
2023-01-02T19:23:02.558Z,7.80
2023-01-02T19:27:20.634Z,9.35
2023-01-02T19:31:24.238Z,10.10
2023-01-02T19:35:57.457Z,9.43
2023-01-02T19:40:02.939Z,9.13
2023-01-02T19:44:06.146Z,7.60
2023-01-02T19:48:12.515Z,7.28
2023-01-02T19:52:20.166Z,7.97
2023-01-02T19:56:23.364Z,9.63
2023-01-02T20:00:26.345Z,9.25
2023-01-02T20:04:29.854Z,10.35
2023-01-02T20:08:34.695Z,12.15
2023-01-02T20:12:41.113Z,11.57
2023-01-02T20:16:44.144Z,14.18
2023-01-02T20:20:47.297Z,13.82
2023-01-02T20:24:51.747Z,12.73
2023-01-02T20:28:54.776Z,11.88
2023-01-02T20:32:57.737Z,11.07
2023-01-02T20:37:00.779Z,13.68
2023-01-02T20:41:05.296Z,12.02
2023-01-02T20:45:13.727Z,13.52
2023-01-02T20:49:17.594Z,12.20
2023-01-02T20:53:20.635Z,13.75
2023-01-02T20:57:24.974Z,11.75
2023-01-02T21:01:28.270Z,13.13
2023-01-02T21:05:31.359Z,13.63
2023-01-02T21:09:34.908Z,13.10
2023-01-02T21:13:39.801Z,12.80
2023-01-02T21:17:42.763Z,12.88
2023-01-02T21:21:45.907Z,11.23
2023-01-02T21:25:50.141Z,10.68
2023-01-02T21:29:55.585Z,11.00
2023-01-02T21:33:58.819Z,13.07
2023-01-02T21:38:02.487Z,15.43
2023-01-02T21:42:17.545Z,11.57
2023-01-02T21:46:22.308Z,11.85
2023-01-02T21:50:26.141Z,10.27
2023-01-02T21:54:29.237Z,11.68
2023-01-02T21:58:32.301Z,11.65
2023-01-02T22:02:38.812Z,11.13
2023-01-02T22:07:12.458Z,14.13
2023-01-02T22:11:23.234Z,11.60
2023-01-02T22:15:26.506Z,10.73
2023-01-02T22:19:31.716Z,9.95
2023-01-02T22:23:36.895Z,10.55
2023-01-02T22:27:40.443Z,11.80
2023-01-02T22:31:43.992Z,10.23
2023-01-02T22:35:48.388Z,9.43
2023-01-02T22:39:51.491Z,8.95
2023-01-02T22:43:54.703Z,10.13
2023-01-02T22:48:00.015Z,12.10
2023-01-02T22:52:07.271Z,8.90
2023-01-02T22:56:13.962Z,8.30
2023-01-02T23:00:18.323Z,10.15
2023-01-02T23:04:23.567Z,9.75
2023-01-02T23:08:28.013Z,8.82
2023-01-02T23:12:31.036Z,9.55
2023-01-02T23:16:52.053Z,8.50
2023-01-02T23:20:55.166Z,8.30
2023-01-02T23:25:00.690Z,9.30
2023-01-02T23:29:07.057Z,10.32
2023-01-02T23:33:11.250Z,9.23
2023-01-02T23:37:14.253Z,10.07
2023-01-02T23:41:19.532Z,8.98
2023-01-02T23:45:22.521Z,11.60
2023-01-02T23:49:26.035Z,12.15
2023-01-02T23:53:29.403Z,9.30
2023-01-02T23:57:35.011Z,11.20
